createdAt,value
2018-02-02T00:00:43.824Z,85.94
2018-02-02T00:01:43.824Z,84.14
2018-02-02T00:02:43.807Z,84.81
2018-02-02T00:03:43.783Z,85.28
2018-02-02T00:04:43.771Z,84.52
2018-02-02T00:05:43.805Z,84.61
2018-02-02T00:06:43.769Z,82.91
2018-02-02T00:07:43.731Z,82.63
2018-02-02T00:08:43.724Z,82.91
2018-02-02T00:09:43.710Z,81.87
2018-02-02T00:10:43.691Z,82.44
2018-02-02T00:11:43.679Z,83.20
2018-02-02T00:12:43.665Z,83.76
2018-02-02T00:13:43.653Z,82.34
2018-02-02T00:14:43.643Z,81.40
2018-02-02T00:15:43.632Z,82.25
2018-02-02T00:16:43.615Z,82.34
2018-02-02T00:17:43.612Z,81.87
2018-02-02T00:18:43.586Z,82.82
2018-02-02T00:19:43.579Z,82.15
2018-02-02T00:20:43.565Z,83.86
2018-02-02T00:21:43.551Z,83.20
2018-02-02T00:22:43.541Z,85.09
2018-02-02T00:23:43.536Z,85.57
2018-02-02T00:24:43.517Z,86.04
2018-02-02T00:25:43.512Z,85.85
2018-02-02T00:26:43.489Z,86.70
2018-02-02T00:27:43.481Z,84.61
2018-02-02T00:28:43.484Z,83.76
2018-02-02T00:29:43.448Z,83.29
2018-02-02T00:30:43.441Z,80.83
2018-02-02T00:31:43.425Z,83.39
2018-02-02T00:32:43.413Z,81.59
2018-02-02T00:33:43.412Z,83.10
2018-02-02T00:34:43.392Z,82.63
2018-02-02T00:35:43.376Z,83.39
2018-02-02T00:36:43.407Z,83.39
2018-02-02T00:37:43.347Z,82.53
2018-02-02T00:38:43.343Z,80.93
2018-02-02T00:39:43.341Z,82.53
2018-02-02T00:40:43.345Z,81.87
2018-02-02T00:41:43.313Z,82.63
2018-02-02T00:42:43.287Z,83.10
2018-02-02T00:43:43.275Z,83.10
2018-02-02T00:44:43.268Z,82.72
2018-02-02T00:45:43.251Z,82.53
2018-02-02T00:46:43.237Z,80.74
2018-02-02T00:47:43.222Z,81.30
2018-02-02T00:48:43.222Z,82.06
2018-02-02T00:49:43.207Z,80.64
2018-02-02T00:50:43.189Z,82.63
2018-02-02T00:51:43.197Z,80.64
2018-02-02T00:52:43.160Z,80.83
2018-02-02T00:53:43.147Z,81.68
2018-02-02T00:54:43.141Z,81.59
2018-02-02T00:55:43.128Z,82.06
2018-02-02T00:56:43.114Z,80.74
2018-02-02T00:57:43.099Z,83.39
2018-02-02T00:58:43.086Z,80.83
2018-02-02T00:59:43.085Z,82.53
2018-02-02T01:00:43.058Z,85.09
2018-02-02T01:01:43.059Z,82.15
2018-02-02T01:02:43.036Z,82.57
2018-02-02T01:03:43.023Z,83.29
2018-02-02T01:04:43.010Z,82.53
2018-02-02T01:05:42.999Z,83.29
2018-02-02T01:06:42.986Z,82.39
2018-02-02T01:07:42.980Z,83.58
2018-02-02T01:08:42.964Z,82.72
2018-02-02T01:09:42.961Z,83.20
2018-02-02T01:10:42.939Z,84.00
2018-02-02T01:11:42.958Z,85.23
2018-02-02T01:12:42.921Z,84.66
2018-02-02T01:13:42.900Z,83.62
2018-02-02T01:14:42.901Z,85.13
2018-02-02T01:15:42.895Z,85.04
2018-02-02T01:16:42.888Z,85.61
2018-02-02T01:17:42.851Z,83.05
2018-02-02T01:18:42.839Z,84.66
2018-02-02T01:19:42.826Z,85.23
2018-02-02T01:20:42.811Z,83.43
2018-02-02T01:21:42.823Z,85.23
2018-02-02T01:22:42.788Z,82.76
2018-02-02T01:23:42.788Z,83.14
2018-02-02T01:24:42.763Z,82.48
2018-02-02T01:25:42.747Z,84.66
2018-02-02T01:26:42.738Z,83.33
2018-02-02T01:27:42.739Z,82.76
2018-02-02T01:28:42.715Z,83.52
2018-02-02T01:29:42.704Z,84.09
2018-02-02T01:30:42.700Z,83.43
2018-02-02T01:31:42.701Z,83.24
2018-02-02T01:32:42.667Z,83.24
2018-02-02T01:33:42.651Z,83.14
2018-02-02T01:34:42.644Z,82.76
2018-02-02T01:35:42.627Z,83.24
2018-02-02T01:36:42.622Z,82.20
2018-02-02T01:37:42.631Z,84.38
2018-02-02T01:38:42.590Z,86.65
2018-02-02T01:39:42.581Z,85.42
2018-02-02T01:40:42.562Z,85.13
2018-02-02T01:41:42.555Z,82.48
2018-02-02T01:42:42.549Z,85.13
2018-02-02T01:43:42.544Z,86.08
2018-02-02T01:44:42.516Z,85.89
2018-02-02T01:45:42.503Z,88.73
2018-02-02T01:46:42.490Z,86.83
2018-02-02T01:47:42.477Z,88.73
2018-02-02T01:48:42.463Z,88.54
2018-02-02T01:49:42.480Z,85.51
2018-02-02T01:50:42.441Z,86.18
2018-02-02T01:51:42.433Z,88.26
2018-02-02T01:52:42.416Z,85.23
2018-02-02T01:53:42.419Z,88.45
2018-02-02T01:54:42.397Z,86.93
2018-02-02T01:55:42.385Z,84.00
2018-02-02T01:56:42.372Z,86.08
2018-02-02T01:57:42.371Z,88.45
2018-02-02T01:58:42.380Z,87.12
2018-02-02T01:59:42.337Z,84.47
2018-02-02T02:00:42.318Z,87.02
2018-02-02T02:01:42.307Z,85.23
2018-02-02T02:02:42.290Z,83.43
2018-02-02T02:03:42.292Z,84.75
2018-02-02T02:04:42.293Z,84.47
2018-02-02T02:05:42.256Z,87.50
2018-02-02T02:06:42.251Z,86.74
2018-02-02T02:07:42.232Z,88.64
2018-02-02T02:08:42.217Z,90.25
2018-02-02T02:09:42.209Z,89.58
2018-02-02T02:10:42.209Z,87.21
2018-02-02T02:11:42.182Z,87.88
2018-02-02T02:12:42.196Z,91.10
2018-02-02T02:13:42.165Z,90.25
2018-02-02T02:14:42.147Z,92.61
2018-02-02T02:15:42.139Z,89.87
2018-02-02T02:16:42.120Z,91.10
2018-02-02T02:17:42.128Z,87.50
2018-02-02T02:18:42.138Z,87.78
2018-02-02T02:19:42.083Z,91.10
2018-02-02T02:20:42.071Z,94.89
2018-02-02T02:21:42.057Z,95.64
2018-02-02T02:22:42.048Z,86.93
2018-02-02T02:23:42.054Z,90.15
2018-02-02T02:24:42.032Z,91.86
2018-02-02T02:25:42.044Z,85.80
2018-02-02T02:26:41.996Z,90.25
2018-02-02T02:27:41.987Z,92.61
2018-02-02T02:28:41.983Z,87.40
2018-02-02T02:29:41.960Z,89.49
2018-02-02T02:30:41.948Z,89.77
2018-02-02T02:31:41.948Z,87.12
2018-02-02T02:32:41.954Z,91.38
2018-02-02T02:33:41.948Z,86.08
2018-02-02T02:34:41.898Z,86.74
2018-02-02T02:35:41.886Z,87.31
2018-02-02T02:36:41.875Z,89.49
2018-02-02T02:37:41.858Z,88.73
2018-02-02T02:38:41.866Z,84.56
2018-02-02T02:39:41.836Z,85.23
2018-02-02T02:40:41.822Z,89.49
2018-02-02T02:41:41.816Z,88.45
2018-02-02T02:42:41.806Z,87.69
2018-02-02T02:43:41.787Z,84.28
2018-02-02T02:44:42.668Z,84.38
2018-02-02T02:45:41.767Z,82.67
2018-02-02T02:46:41.775Z,83.33
2018-02-02T02:47:41.743Z,80.77
2018-02-02T02:48:41.724Z,84.66
2018-02-02T02:49:41.713Z,85.28
2018-02-02T02:50:41.700Z,82.01
2018-02-02T02:51:41.685Z,81.12
2018-02-02T02:52:41.672Z,79.98
2018-02-02T02:53:41.661Z,78.75
2018-02-02T02:54:41.646Z,76.57
2018-02-02T02:55:41.639Z,76.76
2018-02-02T02:56:41.622Z,76.19
2018-02-02T02:57:41.611Z,75.91
2018-02-02T02:58:41.610Z,76.10
2018-02-02T02:59:41.588Z,75.05
2018-02-02T03:00:41.581Z,74.96
2018-02-02T03:01:41.562Z,74.96
2018-02-02T03:02:41.550Z,74.96
2018-02-02T03:03:41.534Z,74.96
2018-02-02T03:04:41.520Z,74.02
2018-02-02T03:05:41.508Z,73.73
2018-02-02T03:06:41.496Z,73.54
2018-02-02T03:07:41.483Z,73.73
2018-02-02T03:08:41.473Z,73.54
2018-02-02T03:09:41.459Z,73.83
2018-02-02T03:10:41.456Z,73.41
2018-02-02T03:11:41.438Z,73.60
2018-02-02T03:12:41.417Z,73.60
2018-02-02T03:13:41.405Z,73.50
2018-02-02T03:14:41.396Z,73.41
2018-02-02T03:15:41.386Z,73.26
2018-02-02T03:16:41.367Z,73.41
2018-02-02T03:17:41.354Z,73.32
2018-02-02T03:18:41.338Z,73.32
2018-02-02T03:19:41.332Z,72.94
2018-02-02T03:20:41.312Z,73.03
2018-02-02T03:21:41.303Z,72.85
2018-02-02T03:22:41.297Z,72.85
2018-02-02T03:23:41.280Z,73.13
2018-02-02T03:24:41.270Z,72.94
2018-02-02T03:25:41.250Z,73.13
2018-02-02T03:26:41.240Z,73.13
2018-02-02T03:27:41.228Z,72.66
2018-02-02T03:28:41.210Z,72.56
2018-02-02T03:29:41.200Z,72.85
2018-02-02T03:30:41.187Z,72.75
2018-02-02T03:31:41.173Z,72.75
2018-02-02T03:32:41.159Z,72.75
2018-02-02T03:33:41.143Z,72.47
2018-02-02T03:34:41.134Z,72.75
2018-02-02T03:35:41.120Z,72.56
2018-02-02T03:36:41.111Z,72.75
2018-02-02T03:37:41.093Z,72.66
2018-02-02T03:38:41.077Z,72.50
2018-02-02T03:39:41.076Z,72.47
2018-02-02T03:40:41.062Z,72.66
2018-02-02T03:41:41.048Z,72.88
2018-02-02T03:42:41.032Z,73.03
2018-02-02T03:43:41.017Z,72.75
2018-02-02T03:44:41.003Z,73.03
2018-02-02T03:45:40.998Z,73.03
2018-02-02T03:46:40.979Z,72.94
2018-02-02T03:47:40.965Z,72.75
2018-02-02T03:48:40.951Z,72.75
2018-02-02T03:49:40.935Z,73.03
2018-02-02T03:50:40.928Z,73.13
2018-02-02T03:51:40.912Z,73.03
2018-02-02T03:52:40.898Z,73.16
2018-02-02T03:53:40.883Z,73.32
2018-02-02T03:54:40.872Z,73.32
2018-02-02T03:55:40.860Z,73.50
2018-02-02T03:56:40.845Z,73.07
2018-02-02T03:57:40.834Z,73.50
2018-02-02T03:58:40.821Z,73.54
2018-02-02T03:59:40.813Z,73.54
2018-02-02T04:00:40.830Z,73.50
2018-02-02T04:01:40.782Z,73.45
2018-02-02T04:02:40.778Z,73.26
2018-02-02T04:03:40.754Z,73.22
2018-02-02T04:04:40.743Z,72.94
2018-02-02T04:05:40.726Z,73.54
2018-02-02T04:06:40.729Z,73.16
2018-02-02T04:07:40.706Z,73.69
2018-02-02T04:08:40.692Z,73.45
2018-02-02T04:09:40.679Z,73.64
2018-02-02T04:10:40.665Z,73.73
2018-02-02T04:11:40.654Z,73.73
2018-02-02T04:12:40.635Z,73.35
2018-02-02T04:13:40.624Z,73.26
2018-02-02T04:14:40.610Z,73.50
2018-02-02T04:15:40.595Z,73.54
2018-02-02T04:16:40.611Z,73.54
2018-02-02T04:17:40.573Z,73.45
2018-02-02T04:18:40.561Z,74.17
2018-02-02T04:19:40.550Z,73.54
2018-02-02T04:20:40.535Z,74.21
2018-02-02T04:21:40.522Z,74.02
2018-02-02T04:22:40.512Z,74.02
2018-02-02T04:23:40.498Z,73.92
2018-02-02T04:24:40.479Z,73.73
2018-02-02T04:25:40.466Z,73.92
2018-02-02T04:28:13.710Z,73.98
2018-02-02T04:29:13.663Z,74.21
2018-02-02T04:30:13.655Z,74.02
2018-02-02T04:31:13.636Z,74.21
2018-02-02T04:32:13.627Z,74.21
2018-02-02T04:33:13.610Z,74.11
2018-02-02T04:34:13.594Z,74.02
2018-02-02T04:35:13.587Z,73.92
2018-02-02T04:36:13.582Z,73.92
2018-02-02T04:37:13.561Z,74.21
2018-02-02T04:38:13.546Z,73.54
2018-02-02T04:39:13.538Z,73.54
2018-02-02T04:40:13.521Z,73.54
2018-02-02T04:41:13.527Z,73.64
2018-02-02T04:42:13.496Z,73.64
2018-02-02T04:43:13.481Z,73.54
2018-02-02T04:44:13.483Z,73.54
2018-02-02T04:45:13.457Z,73.45
2018-02-02T04:46:13.446Z,73.35
2018-02-02T04:47:13.431Z,73.54
2018-02-02T04:48:13.421Z,73.45
2018-02-02T04:49:13.406Z,73.64
2018-02-02T04:50:13.392Z,73.54
2018-02-02T04:51:13.381Z,73.54
2018-02-02T04:52:13.368Z,73.54
2018-02-02T04:53:13.360Z,73.92
2018-02-02T04:54:13.342Z,73.92
2018-02-02T04:55:13.336Z,73.54
2018-02-02T04:56:13.312Z,73.64
2018-02-02T04:57:13.322Z,73.45
2018-02-02T04:58:13.286Z,73.92
2018-02-02T04:59:13.277Z,73.64
2018-02-02T05:00:13.269Z,73.45
2018-02-02T05:01:13.246Z,73.35
2018-02-02T05:02:13.242Z,73.54
2018-02-02T05:03:13.228Z,73.16
2018-02-02T05:04:13.213Z,73.92
2018-02-02T05:05:13.198Z,74.11
2018-02-02T05:06:13.191Z,73.73
2018-02-02T05:07:13.180Z,73.92
2018-02-02T05:08:13.162Z,74.11
2018-02-02T05:09:13.151Z,73.92
2018-02-02T05:10:13.135Z,74.11
2018-02-02T05:11:13.122Z,74.11
2018-02-02T05:12:13.110Z,73.73
2018-02-02T05:13:13.099Z,74.21
2018-02-02T05:14:13.092Z,74.11
2018-02-02T05:15:13.069Z,74.21
2018-02-02T05:16:13.054Z,74.30
2018-02-02T05:17:13.052Z,74.40
2018-02-02T05:18:13.038Z,74.30
2018-02-02T05:19:13.032Z,74.11
2018-02-02T05:20:13.008Z,74.30
2018-02-02T05:21:12.992Z,74.30
2018-02-02T05:22:12.991Z,74.11
2018-02-02T05:23:12.975Z,73.98
2018-02-02T05:24:12.952Z,74.30
2018-02-02T05:25:12.943Z,74.21
2018-02-02T05:26:12.929Z,74.11
2018-02-02T05:27:12.918Z,74.11
2018-02-02T05:28:12.905Z,74.02
2018-02-02T05:29:12.890Z,74.21
2018-02-02T05:30:12.877Z,74.40
2018-02-02T05:31:12.863Z,74.40
2018-02-02T05:32:12.853Z,74.40
2018-02-02T05:33:12.842Z,74.30
2018-02-02T05:34:12.826Z,74.87
2018-02-02T05:35:12.812Z,74.77
2018-02-02T05:36:12.802Z,74.96
2018-02-02T05:37:12.783Z,74.93
2018-02-02T05:38:12.770Z,74.93
2018-02-02T05:39:12.764Z,74.55
2018-02-02T05:40:12.752Z,74.93
2018-02-02T05:41:12.737Z,74.83
2018-02-02T05:42:12.718Z,74.93
2018-02-02T05:43:12.707Z,74.83
2018-02-02T05:44:12.696Z,74.26
2018-02-02T05:45:12.684Z,74.64
2018-02-02T05:46:12.670Z,74.64
2018-02-02T05:47:12.657Z,74.64
2018-02-02T05:48:12.645Z,74.83
2018-02-02T05:49:12.632Z,74.83
2018-02-02T05:50:12.621Z,74.93
2018-02-02T05:51:12.610Z,74.64
2018-02-02T05:52:12.598Z,75.12
2018-02-02T05:53:12.583Z,74.74
2018-02-02T05:54:12.571Z,74.93
2018-02-02T05:55:12.555Z,75.02
2018-02-02T05:56:12.539Z,75.02
2018-02-02T05:57:12.541Z,75.02
2018-02-02T05:58:12.516Z,75.31
2018-02-02T05:59:12.507Z,75.21
2018-02-02T06:00:12.493Z,75.31
2018-02-02T06:01:12.474Z,75.02
2018-02-02T06:02:12.465Z,75.02
2018-02-02T06:03:12.451Z,75.68
2018-02-02T06:04:12.483Z,75.12
2018-02-02T06:05:12.426Z,75.49
2018-02-02T06:06:12.501Z,75.49
2018-02-02T06:07:12.398Z,76.06
2018-02-02T06:08:12.383Z,75.74
2018-02-02T06:09:12.376Z,75.74
2018-02-02T06:10:12.356Z,76.02
2018-02-02T06:11:12.350Z,75.74
2018-02-02T06:12:12.332Z,76.02
2018-02-02T06:13:12.324Z,76.40
2018-02-02T06:14:12.301Z,76.12
2018-02-02T06:15:12.302Z,76.40
2018-02-02T06:16:12.281Z,76.21
2018-02-02T06:17:12.267Z,76.40
2018-02-02T06:18:12.251Z,76.02
2018-02-02T06:19:12.236Z,76.59
2018-02-02T06:20:12.227Z,76.50
2018-02-02T06:21:12.210Z,76.68
2018-02-02T06:22:12.202Z,76.50
2018-02-02T06:23:12.187Z,76.40
2018-02-02T06:24:12.181Z,76.97
2018-02-02T06:25:12.171Z,76.68
2018-02-02T06:26:12.144Z,76.78
2018-02-02T06:27:12.137Z,76.82
2018-02-02T06:28:12.119Z,76.68
2018-02-02T06:29:12.110Z,76.82
2018-02-02T06:30:12.095Z,76.82
2018-02-02T06:31:12.082Z,76.82
2018-02-02T06:32:12.073Z,77.01
2018-02-02T06:33:12.051Z,76.53
2018-02-02T06:34:12.043Z,76.82
2018-02-02T06:35:12.031Z,76.63
2018-02-02T06:36:12.020Z,77.29
2018-02-02T06:37:11.997Z,77.39
2018-02-02T06:38:11.984Z,77.67
2018-02-02T06:39:11.971Z,77.48
2018-02-02T06:40:11.962Z,77.10
2018-02-02T06:41:11.941Z,77.29
2018-02-02T06:42:11.929Z,77.39
2018-02-02T06:43:11.919Z,77.76
2018-02-02T06:44:11.905Z,77.86
2018-02-02T06:45:11.895Z,77.48
2018-02-02T06:46:11.876Z,77.76
2018-02-02T06:47:11.866Z,77.58
2018-02-02T06:48:11.883Z,77.67
2018-02-02T06:49:11.849Z,77.95
2018-02-02T06:50:11.831Z,77.95
2018-02-02T06:51:11.808Z,77.86
2018-02-02T06:52:11.798Z,77.95
2018-02-02T06:53:11.785Z,77.86
2018-02-02T06:54:11.767Z,77.86
2018-02-02T06:55:11.756Z,78.05
2018-02-02T06:56:11.739Z,78.05
2018-02-02T06:57:11.736Z,77.95
2018-02-02T06:58:11.716Z,78.05
2018-02-02T06:59:11.700Z,77.95
2018-02-02T07:00:11.699Z,77.95
2018-02-02T07:01:11.673Z,78.33
2018-02-02T07:02:11.667Z,78.42
2018-02-02T07:03:11.647Z,77.95
2018-02-02T07:04:11.634Z,78.14
2018-02-02T07:05:11.642Z,77.95
2018-02-02T07:06:11.613Z,78.33
2018-02-02T07:07:11.593Z,78.14
2018-02-02T07:08:11.609Z,78.42
2018-02-02T07:09:11.582Z,78.14
2018-02-02T07:10:11.559Z,78.23
2018-02-02T07:11:11.580Z,78.14
2018-02-02T07:12:11.527Z,78.23
2018-02-02T07:13:11.642Z,78.14
2018-02-02T07:14:11.504Z,78.42
2018-02-02T07:15:11.494Z,78.14
2018-02-02T07:16:11.481Z,78.33
2018-02-02T07:17:11.468Z,78.33
2018-02-02T07:18:11.461Z,78.42
2018-02-02T07:19:12.122Z,78.33
2018-02-02T07:20:11.430Z,78.42
2018-02-02T07:21:11.411Z,78.33
2018-02-02T07:22:11.395Z,78.33
2018-02-02T07:23:11.402Z,78.33
2018-02-02T07:24:11.372Z,78.14
2018-02-02T07:25:11.363Z,78.14
2018-02-02T07:26:11.355Z,78.14
2018-02-02T07:27:11.354Z,78.14
2018-02-02T07:28:11.329Z,78.23
2018-02-02T07:29:11.313Z,78.23
2018-02-02T07:30:11.294Z,78.46
2018-02-02T07:31:11.293Z,78.33
2018-02-02T07:32:11.266Z,78.23
2018-02-02T07:33:11.255Z,78.14
2018-02-02T07:34:11.283Z,78.33
2018-02-02T07:35:11.225Z,78.37
2018-02-02T07:36:11.225Z,78.14
2018-02-02T07:37:11.201Z,78.23
2018-02-02T07:38:11.192Z,78.42
2018-02-02T07:39:11.193Z,77.95
2018-02-02T07:40:13.109Z,77.95
2018-02-02T07:41:11.173Z,77.86
2018-02-02T07:42:11.143Z,77.76
2018-02-02T07:43:11.127Z,77.76
2018-02-02T07:44:11.110Z,77.80
2018-02-02T07:45:11.099Z,77.48
2018-02-02T07:46:11.090Z,77.48
2018-02-02T07:47:11.089Z,77.70
2018-02-02T07:48:11.059Z,77.20
2018-02-02T07:49:11.065Z,77.42
2018-02-02T07:50:11.040Z,77.48
2018-02-02T07:51:11.026Z,77.33
2018-02-02T07:52:11.022Z,77.29
2018-02-02T07:53:11.022Z,77.61
2018-02-02T07:54:10.991Z,77.61
2018-02-02T07:55:10.982Z,77.61
2018-02-02T07:56:10.960Z,77.51
2018-02-02T07:57:10.946Z,77.80
2018-02-02T07:58:10.940Z,77.20
2018-02-02T07:59:10.922Z,77.20
2018-02-02T08:00:10.909Z,77.01
2018-02-02T08:01:10.896Z,76.91
2018-02-02T08:02:10.884Z,76.82
2018-02-02T08:03:10.872Z,76.63
2018-02-02T08:04:10.859Z,76.67
2018-02-02T08:05:10.841Z,76.63
2018-02-02T08:06:10.834Z,77.14
2018-02-02T08:07:10.830Z,76.95
2018-02-02T08:08:10.815Z,76.95
2018-02-02T08:09:10.791Z,77.04
2018-02-02T08:10:10.780Z,76.67
2018-02-02T08:11:10.768Z,76.95
2018-02-02T08:12:10.752Z,76.95
2018-02-02T08:13:10.741Z,76.67
2018-02-02T08:14:10.731Z,77.04
2018-02-02T08:15:10.719Z,76.86
2018-02-02T08:16:10.711Z,76.95
2018-02-02T08:17:10.687Z,77.14
2018-02-02T08:18:10.678Z,76.95
2018-02-02T08:19:10.663Z,77.04
2018-02-02T08:20:10.654Z,76.86
2018-02-02T08:21:10.640Z,76.95
2018-02-02T08:22:10.648Z,76.95
2018-02-02T08:23:10.614Z,77.04
2018-02-02T08:24:10.612Z,76.95
2018-02-02T08:25:10.585Z,77.04
2018-02-02T08:26:10.586Z,77.04
2018-02-02T08:27:10.563Z,76.57
2018-02-02T08:28:10.552Z,76.67
2018-02-02T08:29:10.546Z,76.76
2018-02-02T08:30:10.527Z,76.76
2018-02-02T08:31:10.519Z,76.76
2018-02-02T08:32:10.499Z,76.95
2018-02-02T08:33:10.484Z,76.67
2018-02-02T08:34:10.485Z,76.29
2018-02-02T08:35:10.470Z,76.38
2018-02-02T08:36:10.453Z,76.19
2018-02-02T08:37:10.438Z,76.29
2018-02-02T08:38:10.425Z,76.57
2018-02-02T08:39:10.419Z,76.86
2018-02-02T08:40:10.404Z,76.38
2018-02-02T08:41:10.385Z,76.29
2018-02-02T08:42:10.377Z,76.29
2018-02-02T08:43:10.401Z,76.29
2018-02-02T08:44:10.350Z,76.10
2018-02-02T08:45:10.338Z,76.10
2018-02-02T08:46:10.335Z,76.10
2018-02-02T08:47:10.328Z,76.38
2018-02-02T08:48:10.301Z,76.00
2018-02-02T08:49:10.291Z,76.19
2018-02-02T08:50:10.286Z,76.29
2018-02-02T08:51:10.266Z,75.81
2018-02-02T08:52:10.252Z,75.91
2018-02-02T08:53:10.236Z,75.81
2018-02-02T08:54:10.228Z,75.81
2018-02-02T08:55:10.212Z,76.19
2018-02-02T08:56:10.224Z,76.19
2018-02-02T08:57:10.200Z,75.91
2018-02-02T08:58:10.183Z,75.91
2018-02-02T08:59:10.162Z,76.00
2018-02-02T09:00:10.194Z,76.00
2018-02-02T09:01:10.158Z,76.10
2018-02-02T09:02:10.133Z,76.10
2018-02-02T09:03:10.117Z,76.00
2018-02-02T09:04:10.106Z,76.00
2018-02-02T09:05:10.086Z,76.00
2018-02-02T09:06:10.084Z,76.10
2018-02-02T09:07:10.067Z,76.10
2018-02-02T09:08:10.054Z,76.00
2018-02-02T09:09:10.038Z,75.91
2018-02-02T09:10:10.048Z,76.19
2018-02-02T09:11:10.017Z,76.10
2018-02-02T09:12:10.013Z,76.19
2018-02-02T09:13:09.994Z,76.19
2018-02-02T09:14:09.982Z,75.91
2018-02-02T09:15:09.972Z,75.91
2018-02-02T09:16:09.965Z,76.00
2018-02-02T09:17:09.965Z,75.34
2018-02-02T09:18:09.936Z,75.91
2018-02-02T09:19:09.919Z,75.43
2018-02-02T09:20:09.904Z,75.53
2018-02-02T09:21:09.892Z,75.43
2018-02-02T09:22:09.880Z,75.38
2018-02-02T09:23:09.871Z,75.72
2018-02-02T09:24:09.856Z,75.66
2018-02-02T09:25:09.843Z,75.66
2018-02-02T09:26:09.837Z,75.47
2018-02-02T09:27:09.824Z,75.38
2018-02-02T09:28:09.807Z,75.66
2018-02-02T09:29:09.799Z,75.66
2018-02-02T09:30:09.783Z,75.57
2018-02-02T09:31:09.820Z,75.38
2018-02-02T09:32:09.770Z,75.38
2018-02-02T09:33:09.756Z,75.47
2018-02-02T09:34:09.750Z,75.62
2018-02-02T09:35:09.725Z,75.66
2018-02-02T09:36:09.715Z,75.57
2018-02-02T09:37:09.697Z,75.57
2018-02-02T09:38:09.687Z,75.66
2018-02-02T09:39:09.680Z,75.47
2018-02-02T09:40:09.674Z,75.66
2018-02-02T09:41:09.654Z,75.19
2018-02-02T09:42:09.653Z,75.19
2018-02-02T09:43:09.635Z,75.47
2018-02-02T09:44:09.620Z,75.00
2018-02-02T09:45:09.615Z,75.28
2018-02-02T09:46:09.594Z,75.57
2018-02-02T09:47:09.585Z,75.66
2018-02-02T09:48:09.579Z,75.66
2018-02-02T09:49:09.553Z,75.38
2018-02-02T09:50:09.547Z,75.57
2018-02-02T09:51:09.530Z,75.66
2018-02-02T09:52:09.523Z,75.38
2018-02-02T09:53:09.529Z,75.76
2018-02-02T09:54:09.507Z,75.38
2018-02-02T09:55:09.486Z,75.47
2018-02-02T09:56:09.491Z,75.57
2018-02-02T09:57:09.464Z,75.47
2018-02-02T09:58:09.450Z,75.47
2018-02-02T09:59:09.453Z,75.95
2018-02-02T10:00:09.445Z,75.19
2018-02-02T10:01:09.423Z,75.47
2018-02-02T10:02:09.404Z,75.38
2018-02-02T10:03:09.395Z,75.76
2018-02-02T10:04:09.396Z,75.47
2018-02-02T10:05:09.387Z,75.47
2018-02-02T10:06:09.370Z,75.38
2018-02-02T10:07:09.361Z,75.47
2018-02-02T10:08:09.334Z,75.19
2018-02-02T10:09:09.326Z,75.38
2018-02-02T10:10:09.308Z,75.00
2018-02-02T10:11:09.297Z,75.09
2018-02-02T10:12:09.287Z,75.28
2018-02-02T10:13:09.295Z,75.28
2018-02-02T10:14:09.270Z,75.47
2018-02-02T10:15:09.250Z,74.90
2018-02-02T10:16:09.240Z,75.09
2018-02-02T10:17:09.228Z,75.38
2018-02-02T10:18:09.221Z,75.66
2018-02-02T10:19:09.206Z,75.38
2018-02-02T10:20:09.193Z,75.19
2018-02-02T10:21:09.183Z,75.66
2018-02-02T10:22:09.205Z,75.47
2018-02-02T10:23:09.163Z,75.47
2018-02-02T10:24:09.148Z,75.00
2018-02-02T10:25:09.130Z,75.00
2018-02-02T10:26:09.124Z,74.95
2018-02-02T10:27:09.114Z,75.51
2018-02-02T10:28:09.099Z,75.47
2018-02-02T10:29:09.090Z,75.00
2018-02-02T10:30:09.080Z,75.04
2018-02-02T10:31:09.067Z,74.85
2018-02-02T10:32:09.069Z,75.13
2018-02-02T10:33:09.046Z,75.23
2018-02-02T10:34:09.047Z,74.95
2018-02-02T10:35:09.041Z,75.09
2018-02-02T10:36:09.013Z,75.04
2018-02-02T10:37:09.085Z,75.04
2018-02-02T10:38:09.019Z,75.04
2018-02-02T10:39:08.971Z,75.23
2018-02-02T10:40:08.962Z,74.85
2018-02-02T10:41:08.976Z,74.75
2018-02-02T10:42:08.943Z,74.85
2018-02-02T10:43:08.929Z,75.23
2018-02-02T10:44:08.921Z,75.04
2018-02-02T10:45:08.916Z,75.23
2018-02-02T10:46:08.893Z,75.13
2018-02-02T10:47:08.911Z,74.37
2018-02-02T10:48:08.878Z,74.37
2018-02-02T10:49:08.884Z,74.18
2018-02-02T10:50:08.853Z,74.28
2018-02-02T10:51:08.841Z,74.85
2018-02-02T10:52:08.834Z,75.04
2018-02-02T10:53:08.864Z,75.23
2018-02-02T10:54:08.812Z,74.85
2018-02-02T10:55:08.794Z,74.75
2018-02-02T10:56:08.780Z,74.75
2018-02-02T10:57:08.782Z,74.75
2018-02-02T10:58:08.778Z,74.75
2018-02-02T10:59:08.753Z,74.75
2018-02-02T11:00:08.746Z,75.04
2018-02-02T11:01:08.727Z,75.23
2018-02-02T11:02:08.714Z,75.23
2018-02-02T11:03:08.715Z,74.37
2018-02-02T11:04:08.700Z,74.18
2018-02-02T11:05:08.685Z,74.28
2018-02-02T11:06:08.693Z,74.37
2018-02-02T11:07:08.666Z,74.37
2018-02-02T11:08:08.648Z,74.75
2018-02-02T11:09:08.651Z,74.37
2018-02-02T11:10:08.641Z,74.37
2018-02-02T11:11:08.621Z,74.37
2018-02-02T11:12:08.607Z,74.18
2018-02-02T11:13:08.591Z,74.75
2018-02-02T11:14:08.588Z,74.28
2018-02-02T11:15:08.593Z,74.47
2018-02-02T11:16:08.563Z,74.28
2018-02-02T11:17:08.558Z,74.47
2018-02-02T11:18:08.547Z,74.28
2018-02-02T11:19:08.527Z,74.28
2018-02-02T11:20:08.531Z,73.99
2018-02-02T11:21:08.544Z,73.99
2018-02-02T11:22:08.499Z,73.99
2018-02-02T11:23:08.510Z,74.18
2018-02-02T11:24:08.475Z,73.90
2018-02-02T11:25:08.465Z,73.99
2018-02-02T11:26:08.480Z,73.99
2018-02-02T11:27:08.445Z,74.18
2018-02-02T11:28:08.442Z,73.99
2018-02-02T11:29:08.420Z,73.71
2018-02-02T11:30:08.407Z,74.37
2018-02-02T11:31:08.397Z,74.18
2018-02-02T11:32:08.402Z,74.18
2018-02-02T11:33:08.408Z,74.60
2018-02-02T11:34:08.391Z,74.32
2018-02-02T11:35:08.373Z,74.28
2018-02-02T11:36:08.344Z,74.41
2018-02-02T11:37:08.334Z,74.51
2018-02-02T11:38:08.328Z,74.18
2018-02-02T11:39:08.316Z,74.32
2018-02-02T11:40:08.307Z,74.37
2018-02-02T11:41:08.292Z,74.47
2018-02-02T11:42:08.285Z,74.47
2018-02-02T11:43:08.277Z,74.47
2018-02-02T11:44:08.257Z,74.37
2018-02-02T11:45:08.255Z,74.32
2018-02-02T11:46:08.242Z,74.47
2018-02-02T11:47:08.231Z,74.51
2018-02-02T11:48:08.223Z,74.32
2018-02-02T11:49:08.226Z,74.51
2018-02-02T11:50:08.214Z,74.51
2018-02-02T11:51:08.183Z,74.60
2018-02-02T11:52:08.180Z,74.41
2018-02-02T11:53:08.183Z,74.51
2018-02-02T11:54:08.171Z,74.51
2018-02-02T11:55:08.142Z,74.69
2018-02-02T11:56:08.140Z,74.51
2018-02-02T11:57:08.135Z,74.32
2018-02-02T11:58:08.112Z,74.32
2018-02-02T11:59:08.098Z,74.32
2018-02-02T12:00:08.107Z,74.41
2018-02-02T12:01:08.099Z,74.60
2018-02-02T12:02:08.083Z,74.41
2018-02-02T12:03:08.057Z,74.41
2018-02-02T12:04:08.050Z,74.32
2018-02-02T12:05:08.035Z,74.79
2018-02-02T12:06:08.029Z,74.60
2018-02-02T12:07:08.010Z,74.41
2018-02-02T12:08:08.013Z,74.88
2018-02-02T12:09:08.060Z,74.88
2018-02-02T12:10:07.988Z,74.51
2018-02-02T12:11:07.983Z,74.32
2018-02-02T12:12:07.967Z,74.51
2018-02-02T12:13:07.947Z,74.69
2018-02-02T12:14:07.944Z,74.32
2018-02-02T12:15:07.958Z,74.51
2018-02-02T12:16:07.923Z,74.51
2018-02-02T12:17:07.902Z,74.60
2018-02-02T12:18:07.898Z,74.41
2018-02-02T12:19:07.923Z,74.32
2018-02-02T12:20:07.892Z,74.60
2018-02-02T12:21:07.866Z,74.60
2018-02-02T12:22:07.860Z,74.69
2018-02-02T12:23:07.865Z,74.41
2018-02-02T12:24:07.825Z,74.51
2018-02-02T12:25:07.843Z,74.22
2018-02-02T12:26:07.818Z,74.13
2018-02-02T12:27:07.800Z,73.94
2018-02-02T12:28:07.893Z,73.60
2018-02-02T12:29:07.789Z,73.88
2018-02-02T12:30:07.783Z,73.88
2018-02-02T12:31:07.791Z,73.88
2018-02-02T12:32:07.751Z,73.79
2018-02-02T12:33:07.742Z,73.88
2018-02-02T12:34:07.765Z,73.50
2018-02-02T12:35:07.779Z,73.69
2018-02-02T12:36:07.767Z,73.79
2018-02-02T12:37:07.726Z,73.69
2018-02-02T12:38:07.699Z,73.31
2018-02-02T12:39:07.678Z,72.93
2018-02-02T12:40:07.671Z,73.03
2018-02-02T12:41:07.659Z,72.17
2018-02-02T12:42:07.650Z,72.55
2018-02-02T12:43:07.641Z,72.17
2018-02-02T12:44:07.658Z,71.80
2018-02-02T12:45:07.619Z,71.92
2018-02-02T12:46:07.657Z,71.92
2018-02-02T12:47:07.622Z,71.73
2018-02-02T12:48:07.630Z,71.45
2018-02-02T12:49:07.595Z,71.73
2018-02-02T12:50:07.596Z,71.26
2018-02-02T12:51:07.580Z,71.36
2018-02-02T12:52:07.563Z,71.26
2018-02-02T12:53:07.564Z,70.88
2018-02-02T12:54:07.567Z,70.88